createdAt,value
2022-10-07T00:01:12.230Z,2.83
2022-10-07T00:03:40.481Z,2.53
2022-10-07T00:06:13.230Z,2.90
2022-10-07T00:08:45.072Z,2.63
2022-10-07T00:11:17.271Z,2.40
2022-10-07T00:13:47.521Z,3.00
2022-10-07T00:16:18.252Z,2.83
2022-10-07T00:18:46.493Z,3.50
2022-10-07T00:21:16.676Z,3.27
2022-10-07T00:23:47.757Z,3.47
2022-10-07T00:26:18.078Z,3.00
2022-10-07T00:28:46.692Z,3.50
2022-10-07T00:31:17.567Z,2.97
2022-10-07T00:33:46.608Z,2.50
2022-10-07T00:36:17.704Z,2.90
2022-10-07T00:38:51.342Z,3.40
2022-10-07T00:41:21.237Z,3.07
2022-10-07T00:43:50.706Z,2.90
2022-10-07T00:46:29.359Z,3.27
2022-10-07T00:48:59.994Z,2.97
2022-10-07T00:51:29.132Z,3.20
2022-10-07T00:53:58.631Z,3.67
2022-10-07T00:56:28.089Z,2.90
2022-10-07T00:58:58.877Z,3.60
2022-10-07T01:01:27.721Z,3.60
2022-10-07T01:03:56.582Z,3.10
2022-10-07T01:06:25.977Z,3.37
2022-10-07T01:08:55.673Z,3.37
2022-10-07T01:11:41.503Z,4.27
2022-10-07T01:14:16.365Z,3.20
2022-10-07T01:16:52.173Z,3.53
2022-10-07T01:19:52.441Z,3.63
2022-10-07T01:22:30.040Z,4.03
2022-10-07T01:25:14.197Z,3.67
2022-10-07T01:27:50.179Z,3.20
2022-10-07T01:30:19.416Z,4.20
2022-10-07T01:32:53.995Z,3.57
2022-10-07T01:35:27.020Z,3.60
2022-10-07T01:38:00.211Z,4.23
2022-10-07T01:40:33.534Z,4.10
2022-10-07T01:43:03.878Z,3.70
2022-10-07T01:45:35.010Z,3.80
2022-10-07T01:48:04.132Z,3.83
2022-10-07T01:50:34.002Z,3.87
2022-10-07T01:53:21.003Z,3.50
2022-10-07T01:56:03.373Z,3.80
2022-10-07T01:58:48.177Z,3.30
2022-10-07T02:01:22.715Z,3.57
2022-10-07T02:04:18.551Z,4.10
2022-10-07T02:06:58.148Z,4.00
2022-10-07T02:09:32.538Z,4.00
2022-10-07T02:12:10.025Z,3.87
2022-10-07T02:14:46.129Z,4.00
2022-10-07T02:17:18.539Z,4.00
2022-10-07T02:19:53.352Z,4.43
2022-10-07T02:22:24.820Z,3.93
2022-10-07T02:24:55.394Z,3.73
2022-10-07T02:27:29.180Z,4.00
2022-10-07T02:30:04.477Z,3.93
2022-10-07T02:32:36.003Z,3.90
2022-10-07T02:35:13.231Z,3.97
2022-10-07T02:37:44.485Z,3.57
2022-10-07T02:40:12.988Z,3.33
2022-10-07T02:42:51.800Z,3.70
2022-10-07T02:45:30.243Z,4.33
2022-10-07T02:48:03.871Z,4.00
2022-10-07T02:50:38.389Z,3.60
2022-10-07T02:53:08.626Z,3.53
2022-10-07T02:55:37.254Z,3.83
2022-10-07T02:58:09.438Z,3.77
2022-10-07T03:00:46.277Z,3.77
2022-10-07T03:03:16.230Z,4.13
2022-10-07T03:05:58.610Z,4.00
2022-10-07T03:08:28.010Z,3.47
2022-10-07T03:10:57.444Z,4.10
2022-10-07T03:13:26.420Z,3.80
2022-10-07T03:16:00.651Z,4.07
2022-10-07T03:18:30.706Z,4.53
2022-10-07T03:21:22.136Z,3.90
2022-10-07T03:23:54.278Z,4.10
2022-10-07T03:26:26.177Z,4.17
2022-10-07T03:28:55.242Z,3.47
2022-10-07T03:31:25.379Z,4.27
2022-10-07T03:33:57.977Z,4.57
2022-10-07T03:36:26.727Z,3.90
2022-10-07T03:38:55.764Z,3.83
2022-10-07T03:41:25.044Z,3.80
2022-10-07T03:43:59.405Z,4.37
2022-10-07T03:46:30.641Z,4.20
2022-10-07T03:48:59.480Z,4.70
2022-10-07T03:51:29.306Z,3.93
2022-10-07T03:53:59.075Z,4.00
2022-10-07T03:56:31.674Z,4.03
2022-10-07T03:59:01.667Z,4.20
2022-10-07T04:01:31.592Z,3.93
2022-10-07T04:04:03.616Z,3.43
2022-10-07T04:06:37.893Z,3.90
2022-10-07T04:09:10.636Z,3.90
2022-10-07T04:11:41.583Z,4.00
2022-10-07T04:14:10.636Z,3.80
2022-10-07T04:16:42.098Z,3.93
2022-10-07T04:19:13.691Z,3.97
2022-10-07T04:21:44.490Z,3.70
2022-10-07T04:24:12.932Z,3.47
2022-10-07T04:26:41.175Z,3.73
2022-10-07T04:29:09.780Z,3.63
2022-10-07T04:31:38.190Z,3.50
2022-10-07T04:34:08.562Z,3.90
2022-10-07T04:36:40.715Z,4.00
2022-10-07T04:39:12.153Z,3.43
2022-10-07T04:41:47.003Z,3.70
2022-10-07T04:44:19.785Z,3.27
2022-10-07T04:46:56.821Z,3.10
2022-10-07T04:49:28.836Z,3.27
2022-10-07T04:51:59.633Z,3.37
2022-10-07T04:54:34.215Z,3.63
2022-10-07T04:57:02.501Z,3.63
2022-10-07T04:59:31.633Z,4.03
2022-10-07T05:02:00.563Z,3.37
2022-10-07T05:04:31.387Z,4.17
2022-10-07T05:07:00.138Z,3.73
2022-10-07T05:09:29.924Z,3.87
2022-10-07T05:11:58.184Z,3.57
2022-10-07T05:14:26.898Z,3.80
2022-10-07T05:16:57.292Z,4.13
2022-10-07T05:19:29.227Z,3.63
2022-10-07T05:21:58.926Z,3.90
2022-10-07T05:24:27.700Z,3.80
2022-10-07T05:26:56.280Z,3.63
2022-10-07T05:29:24.900Z,3.37
2022-10-07T05:31:55.131Z,3.60
2022-10-07T05:34:26.838Z,3.43
2022-10-07T05:36:56.079Z,2.43
2022-10-07T05:39:26.061Z,3.57
2022-10-07T05:41:59.665Z,3.83
2022-10-07T05:44:34.879Z,3.77
2022-10-07T05:47:04.737Z,3.50
2022-10-07T05:49:33.701Z,3.20
2022-10-07T05:52:01.833Z,3.70
2022-10-07T05:54:32.780Z,3.00
2022-10-07T05:57:01.245Z,3.40
2022-10-07T05:59:31.103Z,3.30
2022-10-07T06:02:00.362Z,3.00
2022-10-07T06:04:29.598Z,3.43
2022-10-07T06:06:57.922Z,3.03
2022-10-07T06:09:44.254Z,3.43
2022-10-07T06:12:35.372Z,2.87
2022-10-07T06:15:10.193Z,3.33
2022-10-07T06:17:44.263Z,3.40
2022-10-07T06:20:15.349Z,3.90
2022-10-07T06:22:45.368Z,4.20
2022-10-07T06:25:15.517Z,2.90
2022-10-07T06:27:51.154Z,3.10
2022-10-07T06:30:22.257Z,3.17
2022-10-07T06:32:50.533Z,3.00
2022-10-07T06:35:18.891Z,3.40
2022-10-07T06:37:47.861Z,3.33
2022-10-07T06:40:16.621Z,3.70
2022-10-07T06:42:46.342Z,3.13
2022-10-07T06:45:43.368Z,3.00
2022-10-07T06:48:13.314Z,3.13
2022-10-07T06:50:50.205Z,3.57
2022-10-07T06:53:18.688Z,2.83
2022-10-07T06:55:47.189Z,2.90
2022-10-07T06:58:16.691Z,2.87
2022-10-07T07:00:49.274Z,3.03
2022-10-07T07:03:17.955Z,3.43
2022-10-07T07:05:49.709Z,2.77
2022-10-07T07:08:21.056Z,3.17
2022-10-07T07:10:49.877Z,3.83
2022-10-07T07:13:20.315Z,3.03
2022-10-07T07:15:55.998Z,3.23
2022-10-07T07:18:24.986Z,3.10
2022-10-07T07:20:53.923Z,3.23
2022-10-07T07:23:22.958Z,3.40
2022-10-07T07:25:51.191Z,2.70
2022-10-07T07:28:20.843Z,2.80
2022-10-07T07:30:50.520Z,2.83
2022-10-07T07:33:18.978Z,3.10
2022-10-07T07:35:47.159Z,3.67
2022-10-07T07:38:15.598Z,3.23
2022-10-07T07:40:44.083Z,3.07
2022-10-07T07:43:12.258Z,3.63
2022-10-07T07:45:41.813Z,3.57
2022-10-07T07:48:12.011Z,3.07
2022-10-07T07:50:41.385Z,3.40
2022-10-07T07:53:10.288Z,2.60
2022-10-07T07:55:38.434Z,2.50
2022-10-07T07:58:11.738Z,3.23
2022-10-07T08:00:42.682Z,3.30
2022-10-07T08:03:11.131Z,3.33
2022-10-07T08:05:39.282Z,2.73
2022-10-07T08:08:07.576Z,2.63
2022-10-07T08:10:37.115Z,2.67
2022-10-07T08:13:05.277Z,2.57
2022-10-07T08:15:33.506Z,2.80
2022-10-07T08:18:03.375Z,3.17
2022-10-07T08:20:31.615Z,2.47
2022-10-07T08:23:01.097Z,2.93
2022-10-07T08:25:29.636Z,3.17
2022-10-07T08:27:59.860Z,2.87
2022-10-07T08:30:28.644Z,2.50
2022-10-07T08:33:01.385Z,2.30
2022-10-07T08:35:31.190Z,2.70
2022-10-07T08:37:59.342Z,2.73
2022-10-07T08:40:27.586Z,2.20
2022-10-07T08:42:55.973Z,3.17
2022-10-07T08:45:34.175Z,2.43
2022-10-07T08:48:08.289Z,2.30
2022-10-07T08:50:49.562Z,2.10
2022-10-07T08:53:22.293Z,2.33
2022-10-07T08:55:53.973Z,2.80
2022-10-07T08:58:46.724Z,2.03
2022-10-07T09:01:32.148Z,2.30
2022-10-07T09:04:15.284Z,2.70
2022-10-07T09:06:52.143Z,2.50
2022-10-07T09:09:27.600Z,2.50
2022-10-07T09:11:58.909Z,1.97
2022-10-07T09:14:29.953Z,2.20
2022-10-07T09:17:03.489Z,2.10
2022-10-07T09:19:34.544Z,2.00
2022-10-07T09:22:11.066Z,1.50
2022-10-07T09:24:39.719Z,2.40
2022-10-07T09:27:15.996Z,2.33
2022-10-07T09:29:44.348Z,2.47
2022-10-07T09:32:14.128Z,2.30
2022-10-07T09:34:42.709Z,2.07
2022-10-07T09:37:19.170Z,1.70
2022-10-07T09:39:49.249Z,2.30
2022-10-07T09:42:29.744Z,1.77
2022-10-07T09:45:01.215Z,2.00
2022-10-07T09:47:33.357Z,2.20
2022-10-07T09:50:01.609Z,1.63
2022-10-07T09:52:32.181Z,1.88
2022-10-07T09:55:32.007Z,2.37
2022-10-07T09:58:02.017Z,2.60
2022-10-07T10:00:31.334Z,2.80
2022-10-07T10:03:06.331Z,1.85
2022-10-07T10:05:36.204Z,2.47
2022-10-07T10:08:11.252Z,1.63
2022-10-07T10:10:39.532Z,2.03
2022-10-07T10:13:08.302Z,1.90
2022-10-07T10:15:43.125Z,1.50
2022-10-07T10:18:39.286Z,1.90
2022-10-07T10:21:25.302Z,1.80
2022-10-07T10:23:58.054Z,2.40
2022-10-07T10:27:01.595Z,1.95
2022-10-07T10:29:47.342Z,1.88
2022-10-07T10:32:32.130Z,1.73
2022-10-07T10:35:06.069Z,1.48
2022-10-07T10:37:58.372Z,1.75
2022-10-07T10:40:36.317Z,1.60
2022-10-07T10:43:16.473Z,1.48
2022-10-07T10:45:52.534Z,1.42
2022-10-07T10:48:30.437Z,1.77
2022-10-07T10:51:10.235Z,2.33
2022-10-07T10:53:50.005Z,1.67
2022-10-07T10:56:34.330Z,1.20
2022-10-07T10:59:17.236Z,1.55
2022-10-07T11:01:47.989Z,1.30
2022-10-07T11:04:25.791Z,1.60
2022-10-07T11:06:59.655Z,1.52
2022-10-07T11:09:35.028Z,1.60
2022-10-07T11:12:08.371Z,1.40
2022-10-07T11:14:48.510Z,1.70
2022-10-07T11:17:19.035Z,1.02
2022-10-07T11:19:54.251Z,1.48
2022-10-07T11:22:33.013Z,1.20
2022-10-07T11:25:08.335Z,1.00
2022-10-07T11:27:38.122Z,1.35
2022-10-07T11:30:16.678Z,1.08
2022-10-07T11:32:49.284Z,1.38
2022-10-07T11:35:25.749Z,1.90
2022-10-07T11:38:01.090Z,2.15
2022-10-07T11:40:34.330Z,1.33
2022-10-07T11:43:09.745Z,1.65
2022-10-07T11:45:43.918Z,1.60
2022-10-07T11:48:19.532Z,1.30
2022-10-07T11:50:52.795Z,1.58
2022-10-07T11:53:24.222Z,1.75
2022-10-07T11:55:59.648Z,1.20
2022-10-07T11:58:33.194Z,1.70
2022-10-07T12:01:41.048Z,1.38
2022-10-07T12:04:45.914Z,1.10
2022-10-07T12:07:40.276Z,1.63
2022-10-07T12:10:32.419Z,1.20
2022-10-07T12:13:22.646Z,1.35
2022-10-07T12:15:53.262Z,1.45
2022-10-07T12:18:30.487Z,1.98
2022-10-07T12:21:07.862Z,1.50
2022-10-07T12:23:41.342Z,1.85
2022-10-07T12:26:52.164Z,1.60
2022-10-07T12:29:45.510Z,1.63
2022-10-07T12:32:56.316Z,1.60
2022-10-07T12:35:54.835Z,1.38
2022-10-07T12:38:26.266Z,1.85
2022-10-07T12:41:24.909Z,1.95
2022-10-07T12:44:04.580Z,1.30
2022-10-07T12:46:39.363Z,1.70
2022-10-07T12:49:17.111Z,1.45
2022-10-07T12:51:46.300Z,1.50
2022-10-07T12:54:20.177Z,1.35
2022-10-07T12:56:49.781Z,1.67
2022-10-07T12:59:47.454Z,1.30
2022-10-07T13:02:35.949Z,1.50
2022-10-07T13:05:37.048Z,2.10
2022-10-07T13:08:33.844Z,1.85
2022-10-07T13:11:33.708Z,1.33
2022-10-07T13:14:07.440Z,1.42
2022-10-07T13:16:40.929Z,1.40
2022-10-07T13:19:20.049Z,1.48
2022-10-07T13:21:58.842Z,1.33
2022-10-07T13:24:28.157Z,1.98
2022-10-07T13:26:56.506Z,1.40
2022-10-07T13:29:28.866Z,1.70
2022-10-07T13:32:08.667Z,1.63
2022-10-07T13:34:36.987Z,1.80
2022-10-07T13:37:26.312Z,1.30
2022-10-07T13:39:54.525Z,1.27
2022-10-07T13:42:26.694Z,1.80
2022-10-07T13:45:00.374Z,1.40
2022-10-07T13:47:33.884Z,1.10
2022-10-07T13:50:03.587Z,1.58
2022-10-07T13:52:37.174Z,1.50
2022-10-07T13:55:20.981Z,1.27
2022-10-07T13:57:49.596Z,1.42
2022-10-07T14:00:18.486Z,1.75
2022-10-07T14:02:48.339Z,1.83
2022-10-07T14:05:21.266Z,1.33
2022-10-07T14:07:55.355Z,1.60
2022-10-07T14:10:27.010Z,1.27
2022-10-07T14:12:58.574Z,1.20
2022-10-07T14:15:29.122Z,1.20
2022-10-07T14:18:00.238Z,1.42
2022-10-07T14:20:31.914Z,1.30
2022-10-07T14:23:03.779Z,1.50
2022-10-07T14:25:35.846Z,1.25
2022-10-07T14:28:16.257Z,1.55
2022-10-07T14:31:03.474Z,1.13
2022-10-07T14:34:00.137Z,1.13
2022-10-07T14:36:28.513Z,1.50
2022-10-07T14:39:03.344Z,1.20
2022-10-07T14:41:32.651Z,1.40
2022-10-07T14:44:03.989Z,1.33
2022-10-07T14:46:32.281Z,1.40
2022-10-07T14:49:00.613Z,1.30
2022-10-07T14:51:29.937Z,1.30
2022-10-07T14:54:05.129Z,1.50
2022-10-07T14:56:40.603Z,1.05
2022-10-07T14:59:14.866Z,1.20
2022-10-07T15:01:43.219Z,1.40
2022-10-07T15:04:12.155Z,1.10
2022-10-07T15:06:40.733Z,1.02
2022-10-07T15:09:12.946Z,1.45
2022-10-07T15:11:42.346Z,1.50
2022-10-07T15:14:12.206Z,1.20
2022-10-07T15:16:41.649Z,1.10
2022-10-07T15:19:09.992Z,1.27
2022-10-07T15:21:38.242Z,1.77
2022-10-07T15:24:06.575Z,1.27
2022-10-07T15:26:36.196Z,1.65
2022-10-07T15:29:07.883Z,1.65
2022-10-07T15:31:37.346Z,1.63
2022-10-07T15:34:05.845Z,1.52
2022-10-07T15:36:34.023Z,1.88
2022-10-07T15:39:02.418Z,1.27
2022-10-07T15:41:36.949Z,1.35
2022-10-07T15:44:07.282Z,1.80
2022-10-07T15:46:36.054Z,1.70
2022-10-07T15:49:05.650Z,1.23
2022-10-07T15:51:36.318Z,1.67
2022-10-07T15:54:06.624Z,1.70
2022-10-07T15:56:36.281Z,1.40
2022-10-07T15:59:04.538Z,1.40
2022-10-07T16:01:35.072Z,1.75
2022-10-07T16:04:05.560Z,1.20
2022-10-07T16:06:35.767Z,1.58
2022-10-07T16:09:04.896Z,1.40
2022-10-07T16:11:34.897Z,1.75
2022-10-07T16:14:04.813Z,1.50
2022-10-07T16:16:33.730Z,1.55
2022-10-07T16:19:02.258Z,1.90
2022-10-07T16:21:32.064Z,2.42
2022-10-07T16:24:04.391Z,1.90
2022-10-07T16:26:34.460Z,1.85
2022-10-07T16:29:23.657Z,1.95
2022-10-07T16:31:58.843Z,1.88
2022-10-07T16:34:28.743Z,1.42
2022-10-07T16:36:57.865Z,1.52
2022-10-07T16:39:26.556Z,1.50
2022-10-07T16:41:56.473Z,1.52
2022-10-07T16:44:26.117Z,1.75
2022-10-07T16:46:56.966Z,1.88
2022-10-07T16:49:27.451Z,1.60
2022-10-07T16:51:56.132Z,1.88
2022-10-07T16:54:24.415Z,1.60
2022-10-07T16:56:53.414Z,1.50
2022-10-07T16:59:24.328Z,1.50
2022-10-07T17:01:56.274Z,1.63
2022-10-07T17:04:25.373Z,1.95
2022-10-07T17:06:54.181Z,2.20
2022-10-07T17:09:24.611Z,2.13
2022-10-07T17:11:53.023Z,1.85
2022-10-07T17:14:23.074Z,1.83
2022-10-07T17:16:52.616Z,1.73
2022-10-07T17:19:23.655Z,1.70
2022-10-07T17:21:53.322Z,2.05
2022-10-07T17:24:23.171Z,2.10
2022-10-07T17:26:52.958Z,1.93
2022-10-07T17:29:23.397Z,1.97
2022-10-07T17:31:51.958Z,2.20
2022-10-07T17:34:22.443Z,2.07
2022-10-07T17:36:51.294Z,2.33
2022-10-07T17:39:20.101Z,2.20
2022-10-07T17:41:49.239Z,2.40
2022-10-07T17:44:17.612Z,2.10
2022-10-07T17:46:48.926Z,2.20
2022-10-07T17:49:17.268Z,2.77
2022-10-07T17:51:47.044Z,2.27
2022-10-07T17:54:17.793Z,1.90
2022-10-07T17:56:47.801Z,1.90
2022-10-07T17:59:16.574Z,2.53
2022-10-07T18:01:45.550Z,2.50
2022-10-07T18:04:17.954Z,2.80
2022-10-07T18:06:50.711Z,2.40
2022-10-07T18:09:19.556Z,2.87
2022-10-07T18:12:02.015Z,2.20
2022-10-07T18:14:52.614Z,2.50
2022-10-07T18:17:22.337Z,2.53
2022-10-07T18:19:50.492Z,2.80
2022-10-07T18:22:20.443Z,2.20
2022-10-07T18:24:48.937Z,2.33
2022-10-07T18:27:17.110Z,2.17
2022-10-07T18:29:45.873Z,2.23
2022-10-07T18:32:14.024Z,2.30
2022-10-07T18:34:42.460Z,2.43
2022-10-07T18:37:10.649Z,2.30
2022-10-07T18:39:40.678Z,2.70
2022-10-07T18:42:08.918Z,2.57
2022-10-07T18:44:37.062Z,2.27
2022-10-07T18:47:05.294Z,2.53
2022-10-07T18:49:33.472Z,2.10
2022-10-07T18:52:01.771Z,2.77
2022-10-07T18:54:30.025Z,2.30
2022-10-07T18:56:59.531Z,2.20
2022-10-07T18:59:27.714Z,1.90
2022-10-07T19:01:55.965Z,4.00
2022-10-07T19:04:24.419Z,5.97
2022-10-07T19:06:52.647Z,9.67
2022-10-07T19:09:23.364Z,4.20
2022-10-07T19:11:51.718Z,8.97
2022-10-07T19:14:20.566Z,6.33
2022-10-07T19:16:50.079Z,10.07
2022-10-07T19:19:20.068Z,6.60
2022-10-07T19:21:49.570Z,6.83
2022-10-07T19:24:18.192Z,5.13
2022-10-07T19:26:48.470Z,5.73
2022-10-07T19:29:17.983Z,3.90
2022-10-07T19:31:50.080Z,7.83
2022-10-07T19:34:23.619Z,5.17
2022-10-07T19:36:52.163Z,11.60
2022-10-07T19:39:22.438Z,4.30
2022-10-07T19:41:51.356Z,4.00
2022-10-07T19:44:19.896Z,4.60
2022-10-07T19:46:51.359Z,4.40
2022-10-07T19:49:19.509Z,4.20
2022-10-07T19:51:47.747Z,5.77
2022-10-07T19:54:15.950Z,4.47
2022-10-07T19:56:45.188Z,7.33
2022-10-07T19:59:14.995Z,4.23
2022-10-07T20:01:45.345Z,11.07
2022-10-07T20:04:17.601Z,10.03
2022-10-07T20:06:46.211Z,11.90
2022-10-07T20:09:17.298Z,7.50
2022-10-07T20:11:46.771Z,10.80
2022-10-07T20:14:16.155Z,6.80
2022-10-07T20:16:44.572Z,3.80
2022-10-07T20:19:19.607Z,5.50
2022-10-07T20:21:48.640Z,5.70
2022-10-07T20:24:17.878Z,7.70
2022-10-07T20:26:46.443Z,5.27
2022-10-07T20:29:16.571Z,4.47
2022-10-07T20:31:45.982Z,3.10
2022-10-07T20:34:18.881Z,4.77
2022-10-07T20:36:50.268Z,2.90
2022-10-07T20:39:37.815Z,2.80
2022-10-07T20:42:22.200Z,4.40
2022-10-07T20:44:51.640Z,3.70
2022-10-07T20:47:21.459Z,2.97
2022-10-07T20:49:51.773Z,3.27
2022-10-07T20:52:21.765Z,4.00
2022-10-07T20:54:50.593Z,3.60
2022-10-07T20:57:21.475Z,4.63
2022-10-07T20:59:50.413Z,5.00
2022-10-07T21:02:21.649Z,4.40
2022-10-07T21:04:51.373Z,3.77
2022-10-07T21:07:20.040Z,3.27
2022-10-07T21:09:48.798Z,3.53
2022-10-07T21:12:18.520Z,2.97
2022-10-07T21:14:48.724Z,2.90
2022-10-07T21:17:17.689Z,4.00
2022-10-07T21:19:45.976Z,3.03
2022-10-07T21:22:15.796Z,3.23
2022-10-07T21:24:43.949Z,3.17
2022-10-07T21:27:12.170Z,4.40
2022-10-07T21:29:41.279Z,4.40
2022-10-07T21:32:10.581Z,5.30
2022-10-07T21:34:39.653Z,8.70
2022-10-07T21:37:08.030Z,3.47
2022-10-07T21:39:38.249Z,5.00
2022-10-07T21:42:06.694Z,2.67
2022-10-07T21:44:35.734Z,3.27
2022-10-07T21:47:05.066Z,3.53
2022-10-07T21:49:33.354Z,3.40
2022-10-07T21:52:04.171Z,4.37
2022-10-07T21:54:32.292Z,3.90
2022-10-07T21:57:01.877Z,4.23
2022-10-07T21:59:33.552Z,4.60
2022-10-07T22:02:02.233Z,4.30
2022-10-07T22:04:31.097Z,4.53
2022-10-07T22:07:16.878Z,3.43
2022-10-07T22:09:45.125Z,4.13
2022-10-07T22:12:15.742Z,3.13
2022-10-07T22:14:44.634Z,3.10
2022-10-07T22:17:14.287Z,2.50
2022-10-07T22:19:42.552Z,2.67
2022-10-07T22:22:11.119Z,2.33
2022-10-07T22:24:39.383Z,2.90
2022-10-07T22:27:07.582Z,2.37
2022-10-07T22:29:38.309Z,2.43
2022-10-07T22:32:06.638Z,2.47
2022-10-07T22:34:52.349Z,3.17
2022-10-07T22:37:20.630Z,3.50
2022-10-07T22:39:48.949Z,2.63
2022-10-07T22:42:17.175Z,2.13
2022-10-07T22:44:46.725Z,2.57
2022-10-07T22:47:16.374Z,1.90
2022-10-07T22:49:45.254Z,2.00
2022-10-07T22:52:13.433Z,2.27
2022-10-07T22:54:41.708Z,2.60
2022-10-07T22:57:09.887Z,2.37
2022-10-07T22:59:38.848Z,2.47
2022-10-07T23:02:09.935Z,2.50
2022-10-07T23:04:38.143Z,2.00
2022-10-07T23:07:06.339Z,2.10
2022-10-07T23:09:34.883Z,2.53
2022-10-07T23:12:04.789Z,2.10
2022-10-07T23:14:33.132Z,1.93
2022-10-07T23:17:01.401Z,2.30
2022-10-07T23:19:31.059Z,1.83
2022-10-07T23:22:00.227Z,2.00
2022-10-07T23:24:29.054Z,3.13
2022-10-07T23:26:57.425Z,2.07
2022-10-07T23:29:26.621Z,2.40
2022-10-07T23:31:54.778Z,1.83
2022-10-07T23:34:23.355Z,2.20
2022-10-07T23:36:55.259Z,2.27
2022-10-07T23:39:23.614Z,2.63
2022-10-07T23:41:52.010Z,2.33
2022-10-07T23:44:20.281Z,2.40
2022-10-07T23:46:48.839Z,2.20
2022-10-07T23:49:20.104Z,1.67
2022-10-07T23:51:48.989Z,2.27
2022-10-07T23:54:18.476Z,1.90
2022-10-07T23:56:46.650Z,2.00
2022-10-07T23:59:14.853Z,2.07
